Berkeley, CA

7:23 AM PST on February 13, 2016 (GMT -0800)
South Berkeley | | Change Station
CLOSE
Current Station
Personal Weather Station
Location: Berkeley, CA
Elevation: 82 ft
Nearby Weather Stations

Elev 82 ft 37.86 °N, 122.28 °W | Updated 3 minutes ago

Overcast
Overcast
52.5 °F
Feels Like 52.5 °F
N
0.0
Wind Variable Wind from NE

Today
High -- | Low -- °F
--% Chance of Precip.
Yesterday
High -- | Low -- °F
Precip. -- in
Pressure 30.27 in
Visibility 3.0 miles
Clouds Overcast 500 ft
Dew Point 52 °F
Humidity 99%
Rainfall 0.00 in
Snow Depth Not available.
7:01 AM 5:45 PM
Waxing Crescent, 31% visible
METAR KOAK 131453Z 30003KT 3SM BR OVC005 13/11 A3027 RMK AO2 SLP249 T01280111 53012
Pressure 30.27 in
Visibility 3.0 miles
Clouds Overcast 500 ft
Dew Point 52 °F
Humidity 99%
Rainfall 0.00 in
Snow Depth Not available.
7:01 AM 5:45 PM
Waxing Crescent, 31% visible
METAR KOAK 131453Z 30003KT 3SM BR OVC005 13/11 A3027 RMK AO2 SLP249 T01280111 53012

10-Day Weather Forecast

Almanac

Astronomy

Feb. 13, 2016 Rise Set
Actual Time
Civil Twilight
Nautical Twilight
Astronomical Twilight
Moon
Length of Visible Light
Length of Day
Tomorrow will be .
, % of the Moon is Illuminated

Today's Extremes

State Highs State Lows

Community

WunderPhotos

Upload Photos

1,892,580 photos uploaded!

WunderBlog® & News

Nearby

Air Quality

  Air Quality AQ Index Pollutant
Not available.

Snow Depth

Station Depth Elevation

Earthquake Activity

City Distance Mag. Time & Date
Minimum magnitude displayed is 2.5.

Coastal Water Temperatures

Place Temperature

Stations

Nearby Weather Stations

Station Location Temp. Windchill Dew Point Humidity Wind Precip. Elev Updated Type
                   

Watches & Warnings

There are currently no watches in effect.